createdAt,value
2024-05-09T00:04:11.938Z,0
2024-05-09T00:10:22.052Z,0
2024-05-09T00:16:11.904Z,0
2024-05-09T00:22:11.907Z,0
2024-05-09T00:28:11.932Z,0
2024-05-09T00:34:12.001Z,0
2024-05-09T00:40:18.744Z,0
2024-05-09T00:46:11.930Z,0
2024-05-09T00:52:15.740Z,0
2024-05-09T00:58:11.928Z,0
2024-05-09T01:04:12.074Z,0
2024-05-09T01:12:12.091Z,0
2024-05-09T01:18:13.221Z,0
2024-05-09T01:24:11.902Z,0
2024-05-09T01:30:17.280Z,0
2024-05-09T01:36:11.897Z,0
2024-05-09T01:42:11.908Z,0
2024-05-09T01:48:12.118Z,0
2024-05-09T01:54:11.898Z,0
2024-05-09T02:00:15.634Z,0
2024-05-09T02:06:12.058Z,0
2024-05-09T02:12:12.230Z,0
2024-05-09T02:18:12.605Z,0
2024-05-09T02:24:11.921Z,0
2024-05-09T02:30:18.950Z,0
2024-05-09T02:36:11.894Z,0
2024-05-09T02:42:11.906Z,0
2024-05-09T02:48:13.069Z,0
2024-05-09T02:54:11.904Z,0
2024-05-09T03:00:18.528Z,0
2024-05-09T03:06:11.907Z,0
2024-05-09T03:12:12.144Z,0
2024-05-09T03:18:12.868Z,0
2024-05-09T03:24:11.992Z,0
2024-05-09T03:36:11.905Z,0
2024-05-09T03:42:11.920Z,0
2024-05-09T03:48:12.348Z,0
2024-05-09T03:54:11.957Z,0
2024-05-09T04:00:17.975Z,0
2024-05-09T04:06:11.952Z,0
2024-05-09T04:12:12.267Z,0
2024-05-09T04:18:12.022Z,0
2024-05-09T04:24:11.948Z,0
2024-05-09T04:30:18.965Z,0
2024-05-09T04:36:11.898Z,0
2024-05-09T04:42:11.920Z,0
2024-05-09T04:48:12.195Z,0
2024-05-09T04:54:22.204Z,0
2024-05-09T05:00:32.339Z,0
2024-05-09T05:06:11.998Z,0
2024-05-09T05:12:11.998Z,0
2024-05-09T05:18:11.994Z,0
2024-05-09T05:24:11.908Z,0
2024-05-09T05:30:17.936Z,0
2024-05-09T05:36:11.949Z,0
2024-05-09T05:42:11.918Z,0
2024-05-09T05:48:12.075Z,0
2024-05-09T05:54:11.927Z,0
2024-05-09T06:06:11.980Z,0
2024-05-09T06:12:12.055Z,0
2024-05-09T06:18:12.751Z,0
2024-05-09T06:24:14.657Z,0
2024-05-09T06:30:24.859Z,0
2024-05-09T06:36:11.914Z,0.5
2024-05-09T06:42:11.914Z,0.5
2024-05-09T06:48:12.237Z,0.4
2024-05-09T06:54:11.905Z,0.3
2024-05-09T07:00:15.679Z,0.9
2024-05-09T07:06:11.972Z,1.2
2024-05-09T07:18:12.223Z,1.5
2024-05-09T07:24:11.911Z,1.5
2024-05-09T07:30:16.650Z,1.7
2024-05-09T07:36:11.946Z,2.5
2024-05-09T07:42:11.940Z,2.2
2024-05-09T07:49:45.021Z,1.5
2024-05-09T07:54:12.034Z,2.2
2024-05-09T08:00:14.540Z,2.8
2024-05-09T08:12:11.964Z,7.5
2024-05-09T08:18:12.151Z,7.7
2024-05-09T08:24:12.042Z,10.2
2024-05-09T08:30:19.008Z,12.1
2024-05-09T08:36:15.516Z,13.5
2024-05-09T08:42:11.912Z,13.5
2024-05-09T08:48:12.149Z,14
2024-05-09T08:54:11.923Z,15
2024-05-09T09:00:15.128Z,14.5
2024-05-09T09:06:12.031Z,16.4
2024-05-09T09:12:11.925Z,16.7
2024-05-09T09:18:12.418Z,17.1
2024-05-09T09:24:11.929Z,17.5
2024-05-09T09:30:27.293Z,18.8
2024-05-09T09:36:11.963Z,19.2
2024-05-09T09:42:13.278Z,19.5
2024-05-09T09:48:12.143Z,20.5
2024-05-09T09:54:12.009Z,19.2
2024-05-09T10:00:17.277Z,19.7
2024-05-09T10:06:11.959Z,20.2
2024-05-09T10:12:18.664Z,17.7
2024-05-09T10:18:14.576Z,19.9
2024-05-09T10:24:11.960Z,21.1
2024-05-09T10:30:17.855Z,17.5
2024-05-09T10:36:11.969Z,20.3
2024-05-09T10:42:11.936Z,20
2024-05-09T10:48:12.114Z,19.5
2024-05-09T10:54:12.070Z,20.7
2024-05-09T11:06:12.048Z,17.3
2024-05-09T11:12:12.190Z,19.1
2024-05-09T11:18:12.193Z,19.7
2024-05-09T11:24:12.018Z,15.1
2024-05-09T11:30:17.433Z,15.9
2024-05-09T11:36:12.038Z,15.7
2024-05-09T11:48:12.100Z,13.6
2024-05-09T11:54:11.997Z,15.3
2024-05-09T12:00:17.971Z,15.4
2024-05-09T12:06:12.066Z,14.5
2024-05-09T12:12:11.990Z,14.7
2024-05-09T12:18:12.020Z,14.8
2024-05-09T12:24:14.431Z,15.6
2024-05-09T12:30:17.238Z,15.3
2024-05-09T12:36:11.991Z,15.9
2024-05-09T12:42:16.617Z,15.8
2024-05-09T12:48:13.977Z,16.4
2024-05-09T12:54:11.988Z,16.7
2024-05-09T13:00:20.690Z,14.8
2024-05-09T13:06:12.029Z,13.8
2024-05-09T13:12:12.040Z,14
2024-05-09T13:18:12.010Z,13.4
2024-05-09T13:24:11.986Z,13.9
2024-05-09T13:30:21.749Z,12.9
2024-05-09T13:36:12.015Z,14.2
2024-05-09T13:42:12.007Z,14.2
2024-05-09T13:48:12.437Z,15
2024-05-09T13:54:12.080Z,15
2024-05-09T14:00:22.957Z,13.7
2024-05-09T14:06:13.122Z,14.4
2024-05-09T14:12:12.985Z,13.5
2024-05-09T14:18:13.902Z,14.8
2024-05-09T14:24:12.022Z,13.4
2024-05-09T14:36:12.008Z,13
2024-05-09T14:42:12.014Z,13.5
2024-05-09T14:48:12.269Z,14
2024-05-09T14:54:12.020Z,14.5
2024-05-09T15:00:20.809Z,14.4
2024-05-09T15:06:12.156Z,13.9
2024-05-09T15:12:12.018Z,14.2
2024-05-09T15:18:12.185Z,14.1
2024-05-09T15:24:12.036Z,14
2024-05-09T15:30:13.250Z,15
2024-05-09T15:36:12.103Z,14
2024-05-09T15:42:12.108Z,13.7
2024-05-09T15:48:12.189Z,12.8
2024-05-09T15:54:12.034Z,12.8
2024-05-09T16:00:21.830Z,12.7
2024-05-09T16:06:12.043Z,13
2024-05-09T16:12:12.010Z,12.7
2024-05-09T16:18:12.121Z,12.2
2024-05-09T16:24:12.019Z,11.6
2024-05-09T16:30:18.195Z,11.7
2024-05-09T16:36:18.754Z,11.3
2024-05-09T16:42:12.122Z,11.5
2024-05-09T16:48:16.625Z,10.9
2024-05-09T16:54:12.044Z,10.9
2024-05-09T17:00:18.300Z,10.7
2024-05-09T17:06:12.060Z,10.4
2024-05-09T17:12:12.069Z,10.4
2024-05-09T17:18:12.085Z,9.7
2024-05-09T17:30:17.748Z,10.1
2024-05-09T17:36:12.048Z,10.3
2024-05-09T17:42:12.039Z,10.1
2024-05-09T17:48:12.529Z,10.4
2024-05-09T17:54:12.039Z,10
2024-05-09T18:00:12.090Z,9.7
2024-05-09T18:06:12.096Z,9.7
2024-05-09T18:12:12.181Z,10
2024-05-09T18:18:12.271Z,9.8
2024-05-09T18:24:12.122Z,10
2024-05-09T18:30:21.154Z,9.7
2024-05-09T18:36:12.112Z,9.7
2024-05-09T18:42:12.061Z,9.6
2024-05-09T18:48:12.321Z,9.4
2024-05-09T18:54:12.054Z,9
2024-05-09T19:00:19.346Z,8.6
2024-05-09T19:06:12.047Z,8.6
2024-05-09T19:12:12.072Z,8.5
2024-05-09T19:18:12.503Z,8.1
2024-05-09T19:24:12.050Z,8
2024-05-09T19:30:21.016Z,7.8
2024-05-09T19:36:12.070Z,7.8
2024-05-09T19:42:12.051Z,7.8
2024-05-09T19:48:12.282Z,7.6
2024-05-09T19:54:12.058Z,7.4
2024-05-09T20:00:17.685Z,7.1
2024-05-09T20:06:12.094Z,7.1
2024-05-09T20:12:12.072Z,6.9
2024-05-09T20:18:12.262Z,6.7
2024-05-09T20:24:17.683Z,6.7
2024-05-09T20:30:14.622Z,6.7
2024-05-09T20:36:12.070Z,6.7
2024-05-09T20:42:12.088Z,6.5
2024-05-09T20:48:12.261Z,6.5
2024-05-09T20:54:12.066Z,6.8
2024-05-09T21:00:18.559Z,6.9
2024-05-09T21:06:12.047Z,7
2024-05-09T21:12:12.067Z,7.2
2024-05-09T21:18:12.156Z,7.2
2024-05-09T21:24:12.058Z,6.9
2024-05-09T21:30:18.684Z,6.9
2024-05-09T21:36:12.152Z,6.7
2024-05-09T21:42:12.081Z,6.6
2024-05-09T21:48:12.084Z,6.2
2024-05-09T21:54:12.056Z,6.3
2024-05-09T22:00:17.588Z,5.7
2024-05-09T22:06:12.140Z,5.4
2024-05-09T22:12:12.148Z,5.4
2024-05-09T22:18:12.262Z,5
2024-05-09T22:30:20.855Z,4.2
2024-05-09T22:36:12.058Z,4.9
2024-05-09T22:42:12.090Z,5
2024-05-09T22:48:12.275Z,5.3
2024-05-09T22:54:12.091Z,5
2024-05-09T23:00:15.739Z,4.9
2024-05-09T23:06:12.097Z,4.5
2024-05-09T23:12:12.380Z,4.6
2024-05-09T23:18:12.200Z,4.3
2024-05-09T23:24:12.072Z,4.4
2024-05-09T23:30:15.245Z,4.1
2024-05-09T23:36:12.056Z,4.7
2024-05-09T23:42:12.081Z,4.7
2024-05-09T23:48:12.270Z,4.7
2024-05-09T23:54:12.113Z,4.7
